Tuesday, November 21, 2017, 10:47 AM EST
Back to Local

KUUU, Newport State Airport

Location: Middletown, RI, United States Lat: 41.533
Local Time: 10:47 AM EST (15:47 GMT) Lon: -71.283
Time Zone: US/Eastern Elev: 170 ft

Show me the last for .
Show Decoded

2017-11-21 09:53 METAR KUUU 211453Z AUTO VRB06KT 10SM CLR 12/03 A3016 RMK AO2 SLP211 T01220033
                 51009 =
2017-11-21 08:53 METAR KUUU 211353Z AUTO 23007G15KT 10SM CLR 11/03 A3015 RMK AO2 SLP210 T01110033
                 =
2017-11-21 07:53 METAR KUUU 211253Z AUTO 22008KT 180V260 10SM CLR 10/02 A3015 RMK AO2 SLP207
                 T01000017 =
2017-11-21 06:53 METAR KUUU 211153Z AUTO VRB04KT 10SM CLR 08/01 A3013 RMK AO2 SLP201 T00830006
                 10083 20056 53005 =
2017-11-21 05:53 METAR KUUU 211053Z AUTO VRB04KT 10SM CLR 08/M01 A3012 RMK AO2 SLP200 T00781011 =
2017-11-21 04:53 METAR KUUU 210953Z AUTO VRB06KT 10SM CLR 08/00 A3011 RMK AO2 SLP197 T00780000 =
2017-11-21 03:53 METAR KUUU 210853Z AUTO VRB05KT 10SM CLR 07/01 A3011 RMK AO2 SLP197 T00670006
                 50001 =
2017-11-21 02:53 METAR KUUU 210753Z AUTO VRB03KT 10SM CLR 06/M01 A3012 RMK AO2 SLP199 T00561006 =
2017-11-21 01:53 METAR KUUU 210653Z AUTO VRB05KT 10SM CLR 06/M03 A3012 RMK AO2 SLP198 T00611028 =
2017-11-21 00:53 METAR KUUU 210553Z AUTO VRB04KT 10SM CLR 06/M03 A3011 RMK AO2 SLP196 T00561033
                 10067 20050 51010 =
2017-11-20 23:53 METAR KUUU 210453Z AUTO 26007KT 10SM CLR 06/M03 A3010 RMK AO2 SLP194 T00611033
                 400670017 =
2017-11-20 22:53 METAR KUUU 210353Z AUTO 25008KT 210V280 10SM FEW055 06/M03 A3009 RMK AO2 SLP191
                 T00611033 =
2017-11-20 21:53 METAR KUUU 210253Z AUTO 24007G15KT 10SM OVC055 07/M03 A3008 RMK AO2 SLP186
                 T00671033 51014 =
2017-11-20 20:53 METAR KUUU 210153Z AUTO VRB04KT 10SM OVC065 06/M04 A3007 RMK AO2 SLP181
                 T00611039 =
2017-11-20 19:53 METAR KUUU 210053Z AUTO VRB05KT 10SM OVC075 06/M04 A3006 RMK AO2 SLP178
                 T00561044 =
2017-11-20 18:53 METAR KUUU 202353Z AUTO VRB05KT 10SM BKN055 OVC080 06/M04 A3004 RMK AO2 SLP172
                 T00561044 10061 20044 53021 =
2017-11-20 17:53 METAR KUUU 202253Z AUTO VRB06KT 10SM SCT065 BKN080 06/M05 A3001 RMK AO2 SLP164
                 T00561050 =
2017-11-20 16:53 METAR KUUU 202153Z AUTO 26004KT 10SM CLR 05/M06 A2999 RMK AO2 SLP154 T00501061 =
2017-11-20 15:53 METAR KUUU 202053Z AUTO 00000KT 10SM BKN075 05/M07 A2998 RMK AO2 SLP151
                 T00501067 53010 =
2017-11-20 14:53 METAR KUUU 201953Z AUTO VRB05G14KT 10SM FEW060 06/M07 A2996 RMK AO2 SLP144
                 T00561067 =
2017-11-20 13:53 METAR KUUU 201853Z AUTO 29009G18KT 10SM FEW055 SCT065 06/M06 A2995 RMK AO2
                 SLP140 T00561061 =
2017-11-20 12:53 METAR KUUU 201753Z AUTO 27008G18KT 240V300 10SM BKN055 04/M07 A2995 RMK AO2
                 SLP141 T00441067 10050 20017 53001 =
2017-11-20 11:53 METAR KUUU 201653Z AUTO 28014G21KT 10SM BKN050 OVC060 04/M06 A2994 RMK AO2
                 SLP139 T00441061 =
2017-11-20 10:53 METAR KUUU 201553Z AUTO 28014G27KT 10SM SCT055 05/M06 A2994 RMK AO2 PK WND
                 30029/1540 SLP140 T00501061 =

Support USWX by starting your Amazon purchase here.